sensor_id;sensor_type;location;lat;lon;timestamp;P1;durP1;ratioP1;P2;durP2;ratioP2
31128;SDS011;17777;48.770;8.944;2022-08-01T00:00:34;1.02;;;0.93;;
31128;SDS011;17777;48.770;8.944;2022-08-01T00:03:00;0.77;;;0.77;;
31128;SDS011;17777;48.770;8.944;2022-08-01T00:05:26;0.60;;;0.60;;
31128;SDS011;17777;48.770;8.944;2022-08-01T00:07:52;1.08;;;0.90;;
31128;SDS011;17777;48.770;8.944;2022-08-01T00:10:19;1.17;;;0.90;;
31128;SDS011;17777;48.770;8.944;2022-08-01T00:12:45;0.98;;;0.90;;
31128;SDS011;17777;48.770;8.944;2022-08-01T00:15:12;1.17;;;1.08;;
31128;SDS011;17777;48.770;8.944;2022-08-01T00:17:39;1.65;;;1.08;;
31128;SDS011;17777;48.770;8.944;2022-08-01T00:20:07;1.05;;;0.82;;
31128;SDS011;17777;48.770;8.944;2022-08-01T00:22:34;1.90;;;0.73;;
31128;SDS011;17777;48.770;8.944;2022-08-01T00:25:01;1.15;;;1.05;;
31128;SDS011;17777;48.770;8.944;2022-08-01T00:27:29;1.75;;;1.10;;
31128;SDS011;17777;48.770;8.944;2022-08-01T00:29:55;1.77;;;1.00;;
31128;SDS011;17777;48.770;8.944;2022-08-01T00:32:20;1.65;;;1.08;;
31128;SDS011;17777;48.770;8.944;2022-08-01T00:34:46;1.52;;;0.90;;
31128;SDS011;17777;48.770;8.944;2022-08-01T00:37:12;1.27;;;1.10;;
31128;SDS011;17777;48.770;8.944;2022-08-01T00:39:38;1.02;;;0.88;;
31128;SDS011;17777;48.770;8.944;2022-08-01T00:42:07;1.20;;;0.90;;
31128;SDS011;17777;48.770;8.944;2022-08-01T00:44:35;1.48;;;1.02;;
31128;SDS011;17777;48.770;8.944;2022-08-01T00:47:02;0.90;;;0.90;;
31128;SDS011;17777;48.770;8.944;2022-08-01T00:49:28;1.33;;;1.02;;
31128;SDS011;17777;48.770;8.944;2022-08-01T00:51:54;1.05;;;1.00;;
31128;SDS011;17777;48.770;8.944;2022-08-01T00:54:20;0.80;;;0.80;;
31128;SDS011;17777;48.770;8.944;2022-08-01T00:56:48;1.02;;;0.75;;
31128;SDS011;17777;48.770;8.944;2022-08-01T00:59:14;2.38;;;0.90;;
31128;SDS011;17777;48.770;8.944;2022-08-01T01:01:42;0.85;;;0.80;;
31128;SDS011;17777;48.770;8.944;2022-08-01T01:04:08;1.27;;;0.95;;
31128;SDS011;17777;48.770;8.944;2022-08-01T01:06:38;2.03;;;1.00;;
31128;SDS011;17777;48.770;8.944;2022-08-01T01:15:15;1.33;;;1.08;;
31128;SDS011;17777;48.770;8.944;2022-08-01T01:18:47;1.00;;;0.90;;
31128;SDS011;17777;48.770;8.944;2022-08-01T01:32:07;1.60;;;0.70;;
31128;SDS011;17777;48.770;8.944;2022-08-01T01:34:40;1.15;;;0.90;;
31128;SDS011;17777;48.770;8.944;2022-08-01T01:37:11;1.40;;;1.10;;
31128;SDS011;17777;48.770;8.944;2022-08-01T01:39:42;0.90;;;0.90;;
31128;SDS011;17777;48.770;8.944;2022-08-01T01:42:09;0.98;;;0.85;;
31128;SDS011;17777;48.770;8.944;2022-08-01T01:44:36;1.13;;;1.02;;
31128;SDS011;17777;48.770;8.944;2022-08-01T01:47:04;1.10;;;1.00;;
31128;SDS011;17777;48.770;8.944;2022-08-01T01:49:30;1.05;;;0.95;;
31128;SDS011;17777;48.770;8.944;2022-08-01T01:51:57;1.35;;;1.10;;
31128;SDS011;17777;48.770;8.944;2022-08-01T01:54:30;1.35;;;1.20;;
31128;SDS011;17777;48.770;8.944;2022-08-01T01:57:00;1.10;;;0.80;;
31128;SDS011;17777;48.770;8.944;2022-08-01T01:59:29;1.10;;;1.00;;
31128;SDS011;17777;48.770;8.944;2022-08-01T02:01:58;1.67;;;1.20;;
31128;SDS011;17777;48.770;8.944;2022-08-01T02:04:28;1.40;;;1.00;;
31128;SDS011;17777;48.770;8.944;2022-08-01T02:06:58;1.10;;;1.00;;
31128;SDS011;17777;48.770;8.944;2022-08-01T02:09:26;1.20;;;1.10;;
31128;SDS011;17777;48.770;8.944;2022-08-01T02:11:53;1.60;;;1.00;;
31128;SDS011;17777;48.770;8.944;2022-08-01T02:14:20;1.00;;;0.88;;
31128;SDS011;17777;48.770;8.944;2022-08-01T02:16:49;1.27;;;0.98;;
31128;SDS011;17777;48.770;8.944;2022-08-01T02:19:17;5.35;;;1.10;;
31128;SDS011;17777;48.770;8.944;2022-08-01T02:21:49;1.10;;;1.00;;
31128;SDS011;17777;48.770;8.944;2022-08-01T02:24:37;1.17;;;1.08;;
31128;SDS011;17777;48.770;8.944;2022-08-01T02:27:34;0.80;;;0.80;;
31128;SDS011;17777;48.770;8.944;2022-08-01T02:30:25;1.30;;;1.20;;
31128;SDS011;17777;48.770;8.944;2022-08-01T02:33:00;1.17;;;1.08;;
31128;SDS011;17777;48.770;8.944;2022-08-01T02:35:34;3.88;;;0.93;;
31128;SDS011;17777;48.770;8.944;2022-08-01T02:38:04;1.00;;;1.00;;
31128;SDS011;17777;48.770;8.944;2022-08-01T02:40:34;1.95;;;0.90;;
31128;SDS011;17777;48.770;8.944;2022-08-01T02:43:04;0.90;;;0.90;;
31128;SDS011;17777;48.770;8.944;2022-08-01T02:45:31;2.65;;;1.10;;
31128;SDS011;17777;48.770;8.944;2022-08-01T02:48:01;1.00;;;0.90;;
31128;SDS011;17777;48.770;8.944;2022-08-01T02:50:34;1.05;;;1.05;;
31128;SDS011;17777;48.770;8.944;2022-08-01T02:53:01;2.95;;;1.10;;
31128;SDS011;17777;48.770;8.944;2022-08-01T02:55:29;1.02;;;0.88;;
31128;SDS011;17777;48.770;8.944;2022-08-01T02:57:57;1.10;;;1.00;;
31128;SDS011;17777;48.770;8.944;2022-08-01T03:00:26;0.93;;;0.77;;
31128;SDS011;17777;48.770;8.944;2022-08-01T03:02:54;1.15;;;1.00;;
31128;SDS011;17777;48.770;8.944;2022-08-01T03:05:22;1.08;;;1.00;;
31128;SDS011;17777;48.770;8.944;2022-08-01T03:07:50;0.90;;;0.90;;
31128;SDS011;17777;48.770;8.944;2022-08-01T03:10:19;1.20;;;1.10;;
31128;SDS011;17777;48.770;8.944;2022-08-01T03:12:45;2.67;;;1.20;;
31128;SDS011;17777;48.770;8.944;2022-08-01T03:15:13;1.63;;;1.50;;
31128;SDS011;17777;48.770;8.944;2022-08-01T03:17:41;1.30;;;1.20;;
31128;SDS011;17777;48.770;8.944;2022-08-01T03:20:10;0.90;;;0.90;;
31128;SDS011;17777;48.770;8.944;2022-08-01T03:22:39;1.50;;;1.40;;
31128;SDS011;17777;48.770;8.944;2022-08-01T03:25:07;1.42;;;1.30;;
31128;SDS011;17777;48.770;8.944;2022-08-01T03:27:34;1.58;;;1.17;;
31128;SDS011;17777;48.770;8.944;2022-08-01T03:30:03;1.10;;;1.00;;
31128;SDS011;17777;48.770;8.944;2022-08-01T03:32:30;1.17;;;1.08;;
31128;SDS011;17777;48.770;8.944;2022-08-01T03:34:57;1.70;;;1.30;;
31128;SDS011;17777;48.770;8.944;2022-08-01T03:37:27;1.10;;;0.90;;
31128;SDS011;17777;48.770;8.944;2022-08-01T03:42:50;1.95;;;1.42;;
31128;SDS011;17777;48.770;8.944;2022-08-01T03:45:34;1.90;;;1.10;;
31128;SDS011;17777;48.770;8.944;2022-08-01T03:48:08;1.13;;;1.02;;
31128;SDS011;17777;48.770;8.944;2022-08-01T03:50:39;1.25;;;1.15;;
31128;SDS011;17777;48.770;8.944;2022-08-01T03:53:11;1.27;;;1.10;;
31128;SDS011;17777;48.770;8.944;2022-08-01T03:55:39;1.77;;;1.38;;
31128;SDS011;17777;48.770;8.944;2022-08-01T03:58:08;1.75;;;1.30;;
31128;SDS011;17777;48.770;8.944;2022-08-01T04:00:35;1.38;;;1.27;;
31128;SDS011;17777;48.770;8.944;2022-08-01T04:03:09;1.52;;;1.30;;
31128;SDS011;17777;48.770;8.944;2022-08-01T04:05:37;1.20;;;1.05;;
31128;SDS011;17777;48.770;8.944;2022-08-01T04:08:06;1.65;;;1.35;;
31128;SDS011;17777;48.770;8.944;2022-08-01T04:10:31;1.40;;;1.30;;
31128;SDS011;17777;48.770;8.944;2022-08-01T04:12:57;1.15;;;1.05;;
31128;SDS011;17777;48.770;8.944;2022-08-01T04:15:23;1.38;;;1.27;;
31128;SDS011;17777;48.770;8.944;2022-08-01T04:17:49;1.20;;;1.10;;
31128;SDS011;17777;48.770;8.944;2022-08-01T04:20:15;1.67;;;1.25;;
31128;SDS011;17777;48.770;8.944;2022-08-01T04:22:40;2.50;;;1.25;;
31128;SDS011;17777;48.770;8.944;2022-08-01T04:25:09;1.38;;;1.27;;
31128;SDS011;17777;48.770;8.944;2022-08-01T04:27:43;2.35;;;1.17;;
31128;SDS011;17777;48.770;8.944;2022-08-01T04:30:13;1.60;;;1.00;;
31128;SDS011;17777;48.770;8.944;2022-08-01T04:32:41;1.23;;;1.13;;
31128;SDS011;17777;48.770;8.944;2022-08-01T04:35:11;2.08;;;1.17;;
31128;SDS011;17777;48.770;8.944;2022-08-01T04:37:41;1.90;;;1.40;;
31128;SDS011;17777;48.770;8.944;2022-08-01T04:40:11;1.50;;;1.40;;
31128;SDS011;17777;48.770;8.944;2022-08-01T04:42:37;3.95;;;1.10;;
31128;SDS011;17777;48.770;8.944;2022-08-01T04:45:03;2.40;;;1.35;;
31128;SDS011;17777;48.770;8.944;2022-08-01T04:47:30;3.20;;;1.30;;
31128;SDS011;17777;48.770;8.944;2022-08-01T04:49:56;1.30;;;1.20;;
31128;SDS011;17777;48.770;8.944;2022-08-01T04:52:22;1.70;;;1.35;;
31128;SDS011;17777;48.770;8.944;2022-08-01T04:54:48;1.45;;;1.08;;
31128;SDS011;17777;48.770;8.944;2022-08-01T04:57:14;1.42;;;1.30;;
31128;SDS011;17777;48.770;8.944;2022-08-01T04:59:41;1.40;;;1.25;;
31128;SDS011;17777;48.770;8.944;2022-08-01T05:02:10;1.90;;;1.20;;
31128;SDS011;17777;48.770;8.944;2022-08-01T05:04:43;1.95;;;1.13;;
31128;SDS011;17777;48.770;8.944;2022-08-01T05:07:10;1.25;;;1.15;;
31128;SDS011;17777;48.770;8.944;2022-08-01T05:09:38;1.42;;;1.33;;
31128;SDS011;17777;48.770;8.944;2022-08-01T05:12:10;2.23;;;1.60;;
31128;SDS011;17777;48.770;8.944;2022-08-01T05:14:36;1.30;;;1.20;;
31128;SDS011;17777;48.770;8.944;2022-08-01T05:17:03;1.45;;;1.35;;
31128;SDS011;17777;48.770;8.944;2022-08-01T05:19:31;1.67;;;1.30;;
31128;SDS011;17777;48.770;8.944;2022-08-01T05:22:01;2.03;;;1.25;;
31128;SDS011;17777;48.770;8.944;2022-08-01T05:24:32;1.60;;;1.15;;
31128;SDS011;17777;48.770;8.944;2022-08-01T05:26:59;2.53;;;1.40;;
31128;SDS011;17777;48.770;8.944;2022-08-01T05:29:25;1.52;;;1.05;;
31128;SDS011;17777;48.770;8.944;2022-08-01T05:31:52;1.90;;;1.27;;
31128;SDS011;17777;48.770;8.944;2022-08-01T05:34:19;4.65;;;1.08;;
31128;SDS011;17777;48.770;8.944;2022-08-01T05:36:45;1.77;;;1.40;;
31128;SDS011;17777;48.770;8.944;2022-08-01T05:39:11;2.47;;;1.13;;
31128;SDS011;17777;48.770;8.944;2022-08-01T05:41:38;2.20;;;1.20;;
31128;SDS011;17777;48.770;8.944;2022-08-01T05:44:05;0.90;;;0.90;;
31128;SDS011;17777;48.770;8.944;2022-08-01T05:46:31;2.20;;;1.13;;
31128;SDS011;17777;48.770;8.944;2022-08-01T05:48:58;1.73;;;1.13;;
31128;SDS011;17777;48.770;8.944;2022-08-01T05:51:25;2.92;;;1.15;;
31128;SDS011;17777;48.770;8.944;2022-08-01T05:53:51;1.63;;;1.20;;
31128;SDS011;17777;48.770;8.944;2022-08-01T05:56:17;1.15;;;1.05;;
31128;SDS011;17777;48.770;8.944;2022-08-01T05:58:44;1.55;;;0.98;;
31128;SDS011;17777;48.770;8.944;2022-08-01T06:01:10;1.88;;;1.02;;
31128;SDS011;17777;48.770;8.944;2022-08-01T06:03:36;1.25;;;0.98;;
31128;SDS011;17777;48.770;8.944;2022-08-01T06:06:02;1.27;;;1.05;;
31128;SDS011;17777;48.770;8.944;2022-08-01T06:08:29;1.80;;;1.10;;
31128;SDS011;17777;48.770;8.944;2022-08-01T06:10:55;1.05;;;0.95;;
31128;SDS011;17777;48.770;8.944;2022-08-01T06:13:21;2.25;;;1.27;;
31128;SDS011;17777;48.770;8.944;2022-08-01T06:15:47;2.03;;;1.20;;
31128;SDS011;17777;48.770;8.944;2022-08-01T06:18:13;0.95;;;0.93;;
31128;SDS011;17777;48.770;8.944;2022-08-01T06:20:40;1.05;;;0.95;;
31128;SDS011;17777;48.770;8.944;2022-08-01T06:23:06;1.30;;;1.20;;
31128;SDS011;17777;48.770;8.944;2022-08-01T06:25:33;1.52;;;0.77;;
31128;SDS011;17777;48.770;8.944;2022-08-01T06:27:59;1.23;;;1.10;;
31128;SDS011;17777;48.770;8.944;2022-08-01T06:30:25;0.70;;;0.70;;
31128;SDS011;17777;48.770;8.944;2022-08-01T06:32:51;1.15;;;0.77;;
31128;SDS011;17777;48.770;8.944;2022-08-01T06:35:17;0.70;;;0.70;;
31128;SDS011;17777;48.770;8.944;2022-08-01T06:37:43;0.50;;;0.50;;
31128;SDS011;17777;48.770;8.944;2022-08-01T06:40:12;0.60;;;0.60;;
31128;SDS011;17777;48.770;8.944;2022-08-01T06:42:38;1.55;;;0.45;;
31128;SDS011;17777;48.770;8.944;2022-08-01T06:45:05;0.65;;;0.50;;
31128;SDS011;17777;48.770;8.944;2022-08-01T06:47:33;0.40;;;0.40;;
31128;SDS011;17777;48.770;8.944;2022-08-01T06:49:59;0.70;;;0.60;;
31128;SDS011;17777;48.770;8.944;2022-08-01T06:52:25;0.43;;;0.43;;
31128;SDS011;17777;48.770;8.944;2022-08-01T06:54:51;0.55;;;0.50;;
31128;SDS011;17777;48.770;8.944;2022-08-01T06:57:17;0.82;;;0.60;;
31128;SDS011;17777;48.770;8.944;2022-08-01T06:59:43;0.80;;;0.60;;
31128;SDS011;17777;48.770;8.944;2022-08-01T07:02:09;0.75;;;0.50;;
31128;SDS011;17777;48.770;8.944;2022-08-01T07:04:35;1.75;;;0.70;;
31128;SDS011;17777;48.770;8.944;2022-08-01T07:07:01;0.40;;;0.40;;
31128;SDS011;17777;48.770;8.944;2022-08-01T07:09:27;0.60;;;0.60;;
31128;SDS011;17777;48.770;8.944;2022-08-01T07:11:53;0.47;;;0.40;;
31128;SDS011;17777;48.770;8.944;2022-08-01T07:14:21;0.57;;;0.50;;
31128;SDS011;17777;48.770;8.944;2022-08-01T07:16:47;0.63;;;0.60;;
31128;SDS011;17777;48.770;8.944;2022-08-01T07:19:14;1.15;;;0.80;;
31128;SDS011;17777;48.770;8.944;2022-08-01T07:21:40;0.70;;;0.70;;
31128;SDS011;17777;48.770;8.944;2022-08-01T07:24:06;1.20;;;0.80;;
31128;SDS011;17777;48.770;8.944;2022-08-01T07:26:34;1.35;;;0.80;;
31128;SDS011;17777;48.770;8.944;2022-08-01T07:29:00;0.80;;;0.80;;
31128;SDS011;17777;48.770;8.944;2022-08-01T07:31:26;1.02;;;0.50;;
31128;SDS011;17777;48.770;8.944;2022-08-01T07:33:52;0.80;;;0.70;;
31128;SDS011;17777;48.770;8.944;2022-08-01T07:36:18;0.50;;;0.50;;
31128;SDS011;17777;48.770;8.944;2022-08-01T07:38:44;0.70;;;0.70;;
31128;SDS011;17777;48.770;8.944;2022-08-01T07:41:11;1.20;;;0.90;;
31128;SDS011;17777;48.770;8.944;2022-08-01T07:43:37;0.80;;;0.80;;
31128;SDS011;17777;48.770;8.944;2022-08-01T07:46:03;0.77;;;0.70;;
31128;SDS011;17777;48.770;8.944;2022-08-01T07:48:30;2.03;;;0.80;;
31128;SDS011;17777;48.770;8.944;2022-08-01T07:50:56;0.73;;;0.73;;
31128;SDS011;17777;48.770;8.944;2022-08-01T07:53:22;0.60;;;0.60;;
31128;SDS011;17777;48.770;8.944;2022-08-01T07:55:48;1.38;;;1.00;;
31128;SDS011;17777;48.770;8.944;2022-08-01T07:58:14;1.17;;;0.75;;
31128;SDS011;17777;48.770;8.944;2022-08-01T08:00:41;0.70;;;0.70;;
31128;SDS011;17777;48.770;8.944;2022-08-01T08:03:07;1.20;;;0.90;;
31128;SDS011;17777;48.770;8.944;2022-08-01T08:05:33;0.70;;;0.70;;
31128;SDS011;17777;48.770;8.944;2022-08-01T08:08:04;1.23;;;1.13;;
31128;SDS011;17777;48.770;8.944;2022-08-01T08:10:31;0.80;;;0.80;;
31128;SDS011;17777;48.770;8.944;2022-08-01T08:12:57;3.15;;;1.00;;
31128;SDS011;17777;48.770;8.944;2022-08-01T08:15:23;1.55;;;1.40;;
31128;SDS011;17777;48.770;8.944;2022-08-01T08:17:49;1.92;;;1.27;;
31128;SDS011;17777;48.770;8.944;2022-08-01T08:20:15;1.38;;;1.27;;
31128;SDS011;17777;48.770;8.944;2022-08-01T08:22:41;1.30;;;1.20;;
31128;SDS011;17777;48.770;8.944;2022-08-01T08:25:07;1.35;;;1.25;;
31128;SDS011;17777;48.770;8.944;2022-08-01T08:27:34;3.03;;;1.10;;
31128;SDS011;17777;48.770;8.944;2022-08-01T08:30:01;1.30;;;1.20;;
31128;SDS011;17777;48.770;8.944;2022-08-01T08:32:32;1.38;;;1.20;;
31128;SDS011;17777;48.770;8.944;2022-08-01T08:34:59;1.02;;;1.00;;
31128;SDS011;17777;48.770;8.944;2022-08-01T08:37:25;1.17;;;1.08;;
31128;SDS011;17777;48.770;8.944;2022-08-01T08:39:50;1.30;;;1.05;;
31128;SDS011;17777;48.770;8.944;2022-08-01T08:42:16;1.58;;;1.20;;
31128;SDS011;17777;48.770;8.944;2022-08-01T08:44:43;0.93;;;0.90;;
31128;SDS011;17777;48.770;8.944;2022-08-01T08:47:10;1.00;;;0.90;;
31128;SDS011;17777;48.770;8.944;2022-08-01T08:49:38;1.42;;;1.30;;
31128;SDS011;17777;48.770;8.944;2022-08-01T08:52:04;2.05;;;1.50;;
31128;SDS011;17777;48.770;8.944;2022-08-01T08:54:31;1.35;;;1.20;;
31128;SDS011;17777;48.770;8.944;2022-08-01T08:56:59;1.58;;;1.40;;
31128;SDS011;17777;48.770;8.944;2022-08-01T08:59:25;1.73;;;1.52;;
31128;SDS011;17777;48.770;8.944;2022-08-01T09:01:53;1.80;;;1.70;;
31128;SDS011;17777;48.770;8.944;2022-08-01T09:04:20;2.15;;;1.77;;
31128;SDS011;17777;48.770;8.944;2022-08-01T09:06:49;1.73;;;1.60;;
31128;SDS011;17777;48.770;8.944;2022-08-01T09:09:15;2.45;;;1.98;;
31128;SDS011;17777;48.770;8.944;2022-08-01T09:11:42;2.10;;;1.90;;
31128;SDS011;17777;48.770;8.944;2022-08-01T09:14:17;1.73;;;1.63;;
31128;SDS011;17777;48.770;8.944;2022-08-01T09:16:58;2.17;;;1.98;;
31128;SDS011;17777;48.770;8.944;2022-08-01T09:19:34;3.72;;;2.47;;
31128;SDS011;17777;48.770;8.944;2022-08-01T09:22:04;2.13;;;1.80;;
31128;SDS011;17777;48.770;8.944;2022-08-01T09:25:09;3.03;;;2.08;;
31128;SDS011;17777;48.770;8.944;2022-08-01T09:27:36;1.70;;;1.60;;
31128;SDS011;17777;48.770;8.944;2022-08-01T09:30:08;2.58;;;1.90;;
31128;SDS011;17777;48.770;8.944;2022-08-01T09:33:01;2.10;;;1.90;;
31128;SDS011;17777;48.770;8.944;2022-08-01T09:35:30;1.90;;;1.80;;
31128;SDS011;17777;48.770;8.944;2022-08-01T09:38:11;2.00;;;1.88;;
31128;SDS011;17777;48.770;8.944;2022-08-01T09:40:46;2.47;;;1.83;;
31128;SDS011;17777;48.770;8.944;2022-08-01T09:43:23;4.30;;;1.75;;
31128;SDS011;17777;48.770;8.944;2022-08-01T09:45:52;2.17;;;1.88;;
31128;SDS011;17777;48.770;8.944;2022-08-01T09:48:19;4.70;;;1.80;;
31128;SDS011;17777;48.770;8.944;2022-08-01T09:50:46;1.70;;;1.60;;
31128;SDS011;17777;48.770;8.944;2022-08-01T09:53:14;2.40;;;1.80;;
31128;SDS011;17777;48.770;8.944;2022-08-01T09:56:08;1.65;;;1.50;;
31128;SDS011;17777;48.770;8.944;2022-08-01T09:58:58;1.67;;;1.50;;
31128;SDS011;17777;48.770;8.944;2022-08-01T10:01:24;1.50;;;1.40;;
31128;SDS011;17777;48.770;8.944;2022-08-01T10:04:08;1.52;;;1.42;;
31128;SDS011;17777;48.770;8.944;2022-08-01T10:06:49;1.95;;;1.40;;
31128;SDS011;17777;48.770;8.944;2022-08-01T10:09:28;1.33;;;1.23;;
31128;SDS011;17777;48.770;8.944;2022-08-01T10:11:57;2.30;;;1.75;;
31128;SDS011;17777;48.770;8.944;2022-08-01T10:14:25;1.73;;;1.50;;
31128;SDS011;17777;48.770;8.944;2022-08-01T10:16:53;1.40;;;1.20;;
31128;SDS011;17777;48.770;8.944;2022-08-01T10:19:26;1.50;;;1.40;;
31128;SDS011;17777;48.770;8.944;2022-08-01T10:21:54;1.50;;;1.33;;
31128;SDS011;17777;48.770;8.944;2022-08-01T10:24:21;1.30;;;1.20;;
31128;SDS011;17777;48.770;8.944;2022-08-01T10:26:51;1.08;;;0.93;;
31128;SDS011;17777;48.770;8.944;2022-08-01T10:29:23;1.30;;;1.20;;
31128;SDS011;17777;48.770;8.944;2022-08-01T10:31:50;1.05;;;1.00;;
31128;SDS011;17777;48.770;8.944;2022-08-01T10:34:17;0.90;;;0.90;;
31128;SDS011;17777;48.770;8.944;2022-08-01T10:36:45;1.10;;;1.00;;
31128;SDS011;17777;48.770;8.944;2022-08-01T10:39:11;1.70;;;1.60;;
31128;SDS011;17777;48.770;8.944;2022-08-01T10:41:38;1.52;;;1.42;;
31128;SDS011;17777;48.770;8.944;2022-08-01T10:44:06;1.30;;;0.90;;
31128;SDS011;17777;48.770;8.944;2022-08-01T10:46:48;1.17;;;0.90;;
31128;SDS011;17777;48.770;8.944;2022-08-01T10:49:20;2.35;;;0.90;;
31128;SDS011;17777;48.770;8.944;2022-08-01T10:51:51;0.93;;;0.90;;
31128;SDS011;17777;48.770;8.944;2022-08-01T10:54:17;1.17;;;1.08;;
31128;SDS011;17777;48.770;8.944;2022-08-01T10:56:49;1.17;;;1.08;;
31128;SDS011;17777;48.770;8.944;2022-08-01T10:59:20;0.80;;;0.80;;
31128;SDS011;17777;48.770;8.944;2022-08-01T11:04:55;2.03;;;0.98;;
31128;SDS011;17777;48.770;8.944;2022-08-01T11:07:36;1.88;;;1.40;;
31128;SDS011;17777;48.770;8.944;2022-08-01T11:10:53;1.90;;;1.27;;
31128;SDS011;17777;48.770;8.944;2022-08-01T11:13:04;1.17;;;1.00;;
31128;SDS011;17777;48.770;8.944;2022-08-01T11:15:36;1.17;;;1.10;;
31128;SDS011;17777;48.770;8.944;2022-08-01T11:18:04;0.90;;;0.90;;
31128;SDS011;17777;48.770;8.944;2022-08-01T11:21:01;1.88;;;0.88;;
31128;SDS011;17777;48.770;8.944;2022-08-01T11:23:28;1.30;;;1.20;;
31128;SDS011;17777;48.770;8.944;2022-08-01T11:28:28;1.20;;;1.10;;
31128;SDS011;17777;48.770;8.944;2022-08-01T11:39:11;3.33;;;1.20;;
31128;SDS011;17777;48.770;8.944;2022-08-01T11:41:38;1.02;;;0.90;;
31128;SDS011;17777;48.770;8.944;2022-08-01T11:54:32;0.88;;;0.88;;
31128;SDS011;17777;48.770;8.944;2022-08-01T11:57:11;0.77;;;0.77;;
31128;SDS011;17777;48.770;8.944;2022-08-01T11:59:47;0.93;;;0.90;;
31128;SDS011;17777;48.770;8.944;2022-08-01T12:02:18;1.48;;;1.10;;
31128;SDS011;17777;48.770;8.944;2022-08-01T12:04:52;0.80;;;0.80;;
31128;SDS011;17777;48.770;8.944;2022-08-01T12:07:22;1.55;;;1.20;;
31128;SDS011;17777;48.770;8.944;2022-08-01T12:10:03;1.23;;;1.13;;
31128;SDS011;17777;48.770;8.944;2022-08-01T12:12:50;0.98;;;0.90;;
31128;SDS011;17777;48.770;8.944;2022-08-01T12:15:19;1.20;;;1.10;;
31128;SDS011;17777;48.770;8.944;2022-08-01T12:17:48;1.38;;;1.10;;
31128;SDS011;17777;48.770;8.944;2022-08-01T12:20:24;1.13;;;0.95;;
31128;SDS011;17777;48.770;8.944;2022-08-01T12:23:06;1.52;;;0.90;;
31128;SDS011;17777;48.770;8.944;2022-08-01T12:25:35;0.70;;;0.70;;
31128;SDS011;17777;48.770;8.944;2022-08-01T12:28:02;1.30;;;1.10;;
31128;SDS011;17777;48.770;8.944;2022-08-01T12:30:30;0.88;;;0.88;;
31128;SDS011;17777;48.770;8.944;2022-08-01T12:33:00;0.80;;;0.80;;
31128;SDS011;17777;48.770;8.944;2022-08-01T12:35:28;1.17;;;1.05;;
31128;SDS011;17777;48.770;8.944;2022-08-01T12:37:55;1.20;;;1.10;;
31128;SDS011;17777;48.770;8.944;2022-08-01T12:40:27;1.17;;;1.00;;
31128;SDS011;17777;48.770;8.944;2022-08-01T12:42:56;1.27;;;0.90;;
31128;SDS011;17777;48.770;8.944;2022-08-01T12:45:32;1.15;;;0.88;;
31128;SDS011;17777;48.770;8.944;2022-08-01T12:47:59;1.63;;;0.88;;
31128;SDS011;17777;48.770;8.944;2022-08-01T12:50:29;0.90;;;0.90;;
31128;SDS011;17777;48.770;8.944;2022-08-01T12:52:56;1.52;;;1.10;;
31128;SDS011;17777;48.770;8.944;2022-08-01T12:55:26;1.15;;;1.00;;
31128;SDS011;17777;48.770;8.944;2022-08-01T13:00:32;1.00;;;0.80;;
31128;SDS011;17777;48.770;8.944;2022-08-01T13:03:06;0.90;;;0.90;;
31128;SDS011;17777;48.770;8.944;2022-08-01T13:08:14;1.00;;;0.90;;
31128;SDS011;17777;48.770;8.944;2022-08-01T13:10:43;1.30;;;1.15;;
31128;SDS011;17777;48.770;8.944;2022-08-01T13:13:09;0.98;;;0.80;;
31128;SDS011;17777;48.770;8.944;2022-08-01T13:15:37;1.00;;;0.98;;
31128;SDS011;17777;48.770;8.944;2022-08-01T13:18:25;1.00;;;0.98;;
31128;SDS011;17777;48.770;8.944;2022-08-01T13:21:09;2.00;;;1.20;;
31128;SDS011;17777;48.770;8.944;2022-08-01T13:24:00;0.90;;;0.90;;
31128;SDS011;17777;48.770;8.944;2022-08-01T13:29:07;1.20;;;0.90;;
31128;SDS011;17777;48.770;8.944;2022-08-01T13:31:35;1.55;;;1.10;;
31128;SDS011;17777;48.770;8.944;2022-08-01T13:34:02;1.42;;;1.10;;
31128;SDS011;17777;48.770;8.944;2022-08-01T13:36:29;1.00;;;0.90;;
31128;SDS011;17777;48.770;8.944;2022-08-01T13:39:00;0.90;;;0.90;;
31128;SDS011;17777;48.770;8.944;2022-08-01T13:41:45;1.05;;;0.80;;
31128;SDS011;17777;48.770;8.944;2022-08-01T13:44:12;1.27;;;1.17;;
31128;SDS011;17777;48.770;8.944;2022-08-01T13:46:39;2.45;;;1.20;;
31128;SDS011;17777;48.770;8.944;2022-08-01T13:49:06;1.27;;;1.10;;
31128;SDS011;17777;48.770;8.944;2022-08-01T13:51:34;1.05;;;0.95;;
31128;SDS011;17777;48.770;8.944;2022-08-01T13:54:01;1.10;;;1.00;;
31128;SDS011;17777;48.770;8.944;2022-08-01T13:56:27;0.85;;;0.85;;
31128;SDS011;17777;48.770;8.944;2022-08-01T13:58:54;1.15;;;1.05;;
31128;SDS011;17777;48.770;8.944;2022-08-01T14:01:20;0.85;;;0.80;;
31128;SDS011;17777;48.770;8.944;2022-08-01T14:03:46;1.38;;;0.88;;
31128;SDS011;17777;48.770;8.944;2022-08-01T14:06:12;1.15;;;1.05;;
31128;SDS011;17777;48.770;8.944;2022-08-01T14:08:40;1.45;;;1.00;;
31128;SDS011;17777;48.770;8.944;2022-08-01T14:11:07;2.30;;;1.30;;
31128;SDS011;17777;48.770;8.944;2022-08-01T14:13:33;1.08;;;0.73;;
31128;SDS011;17777;48.770;8.944;2022-08-01T14:16:02;1.00;;;0.90;;
31128;SDS011;17777;48.770;8.944;2022-08-01T14:18:27;1.50;;;1.10;;
31128;SDS011;17777;48.770;8.944;2022-08-01T14:20:53;1.33;;;1.00;;
31128;SDS011;17777;48.770;8.944;2022-08-01T14:23:19;0.80;;;0.80;;
31128;SDS011;17777;48.770;8.944;2022-08-01T14:25:45;2.00;;;0.90;;
31128;SDS011;17777;48.770;8.944;2022-08-01T14:28:11;0.93;;;0.93;;
31128;SDS011;17777;48.770;8.944;2022-08-01T14:30:36;1.60;;;1.10;;
31128;SDS011;17777;48.770;8.944;2022-08-01T14:33:02;1.20;;;1.10;;
31128;SDS011;17777;48.770;8.944;2022-08-01T14:35:28;1.50;;;1.15;;
31128;SDS011;17777;48.770;8.944;2022-08-01T14:37:54;1.15;;;0.90;;
31128;SDS011;17777;48.770;8.944;2022-08-01T14:40:20;2.95;;;1.10;;
31128;SDS011;17777;48.770;8.944;2022-08-01T14:42:46;0.90;;;0.90;;
31128;SDS011;17777;48.770;8.944;2022-08-01T14:45:12;0.93;;;0.70;;
31128;SDS011;17777;48.770;8.944;2022-08-01T14:47:39;2.28;;;1.10;;
31128;SDS011;17777;48.770;8.944;2022-08-01T14:50:08;0.95;;;0.95;;
31128;SDS011;17777;48.770;8.944;2022-08-01T14:52:37;0.90;;;0.90;;
31128;SDS011;17777;48.770;8.944;2022-08-01T14:55:05;1.15;;;0.98;;
31128;SDS011;17777;48.770;8.944;2022-08-01T14:57:34;1.15;;;1.00;;
31128;SDS011;17777;48.770;8.944;2022-08-01T15:00:00;0.88;;;0.80;;
31128;SDS011;17777;48.770;8.944;2022-08-01T15:02:29;1.25;;;1.08;;
31128;SDS011;17777;48.770;8.944;2022-08-01T15:04:55;0.80;;;0.80;;
31128;SDS011;17777;48.770;8.944;2022-08-01T15:07:21;0.88;;;0.70;;
31128;SDS011;17777;48.770;8.944;2022-08-01T15:09:47;1.35;;;0.90;;
31128;SDS011;17777;48.770;8.944;2022-08-01T15:12:12;1.10;;;1.00;;
31128;SDS011;17777;48.770;8.944;2022-08-01T15:14:38;0.73;;;0.73;;
31128;SDS011;17777;48.770;8.944;2022-08-01T15:17:19;0.98;;;0.90;;
31128;SDS011;17777;48.770;8.944;2022-08-01T15:19:49;1.83;;;0.88;;
31128;SDS011;17777;48.770;8.944;2022-08-01T15:22:22;0.88;;;0.80;;
31128;SDS011;17777;48.770;8.944;2022-08-01T15:24:49;1.25;;;1.00;;
31128;SDS011;17777;48.770;8.944;2022-08-01T15:27:17;2.00;;;1.08;;
31128;SDS011;17777;48.770;8.944;2022-08-01T15:29:43;0.88;;;0.88;;
31128;SDS011;17777;48.770;8.944;2022-08-01T15:32:09;1.30;;;0.93;;
31128;SDS011;17777;48.770;8.944;2022-08-01T15:34:35;0.95;;;0.80;;
31128;SDS011;17777;48.770;8.944;2022-08-01T15:37:03;0.82;;;0.82;;
31128;SDS011;17777;48.770;8.944;2022-08-01T15:39:29;0.98;;;0.88;;
31128;SDS011;17777;48.770;8.944;2022-08-01T15:42:00;0.70;;;0.70;;
31128;SDS011;17777;48.770;8.944;2022-08-01T15:44:31;1.05;;;0.75;;
31128;SDS011;17777;48.770;8.944;2022-08-01T15:46:58;1.38;;;0.95;;
31128;SDS011;17777;48.770;8.944;2022-08-01T15:49:25;0.90;;;0.80;;
31128;SDS011;17777;48.770;8.944;2022-08-01T15:51:51;1.00;;;0.80;;